Time;durP1;ratioP1;P1;durP2;ratioP2;P2;SDS_P1;SDS_P2;PMS_P1;PMS_P2;Temp;Humidity;BMP_temperature;BMP_pressure;BME280_temperature;BME280_humidity;BME280_pressure;Samples;Min_cycle;Max_cycle;Signal;HPM_P1;HPM_P2
2023/01/31 00:00:52;;;;;;;19.38;4.35;;;;;;;;;;5013586;28;20021;-34
2023/01/31 00:03:18;;;;;;;23.85;4.03;;;;;;;;;;5013592;28;20026;-34
2023/01/31 00:05:45;;;;;;;25.13;5.00;;;;;;;;;;4995851;28;20404;-34
2023/01/31 00:08:14;;;;;;;17.52;4.15;;;;;;;;;;5013626;28;20022;-34
2023/01/31 00:10:41;;;;;;;22.02;4.47;;;;;;;;;;5013621;28;20061;-34
2023/01/31 00:13:08;;;;;;;20.33;4.53;;;;;;;;;;5013425;28;20476;-34
2023/01/31 00:15:35;;;;;;;24.58;4.65;;;;;;;;;;5013436;28;20480;-34
2023/01/31 00:18:02;;;;;;;21.98;4.43;;;;;;;;;;5013433;28;20088;-34
2023/01/31 00:20:29;;;;;;;22.83;4.72;;;;;;;;;;5013303;28;20080;-34
2023/01/31 00:22:56;;;;;;;22.00;4.32;;;;;;;;;;5013310;28;20029;-35
2023/01/31 00:25:23;;;;;;;21.83;4.25;;;;;;;;;;5013298;28;20025;-34
2023/01/31 00:27:50;;;;;;;18.70;4.15;;;;;;;;;;5013053;28;20041;-34
2023/01/31 00:30:17;;;;;;;26.40;4.00;;;;;;;;;;5013128;28;20026;-34
2023/01/31 00:32:44;;;;;;;20.42;4.63;;;;;;;;;;4995042;28;20037;-34
2023/01/31 00:35:11;;;;;;;17.27;4.57;;;;;;;;;;5013489;28;20037;-34
2023/01/31 00:37:38;;;;;;;21.48;4.40;;;;;;;;;;5013156;28;20025;-34
2023/01/31 00:40:05;;;;;;;22.55;4.35;;;;;;;;;;5012916;28;20075;-34
2023/01/31 00:42:32;;;;;;;25.42;4.75;;;;;;;;;;5012935;28;20086;-34
2023/01/31 00:44:59;;;;;;;27.83;4.30;;;;;;;;;;5013052;28;20025;-34
2023/01/31 00:47:26;;;;;;;23.90;4.97;;;;;;;;;;4995371;28;20026;-34
2023/01/31 00:49:53;;;;;;;27.50;5.45;;;;;;;;;;5012956;28;20022;-34
2023/01/31 00:52:19;;;;;;;21.52;4.38;;;;;;;;;;5012865;28;20053;-34
2023/01/31 00:54:46;;;;;;;19.67;4.82;;;;;;;;;;5012996;28;20560;-34
2023/01/31 00:57:13;;;;;;;17.45;4.35;;;;;;;;;;5012950;28;20022;-34
2023/01/31 00:59:40;;;;;;;20.00;4.40;;;;;;;;;;5012841;28;20029;-35
2023/01/31 01:02:07;;;;;;;21.60;4.43;;;;;;;;;;5012818;28;20038;-34
2023/01/31 01:04:34;;;;;;;25.23;4.55;;;;;;;;;;5012712;28;20033;-34
2023/01/31 01:07:01;;;;;;;26.15;4.47;;;;;;;;;;5012827;28;20373;-34
2023/01/31 01:09:28;;;;;;;26.88;4.70;;;;;;;;;;5012719;28;20022;-34
2023/01/31 01:11:55;;;;;;;26.05;4.88;;;;;;;;;;5012831;28;20024;-35
2023/01/31 01:14:22;;;;;;;25.67;4.43;;;;;;;;;;5012736;28;20400;-34
2023/01/31 01:16:49;;;;;;;21.42;4.30;;;;;;;;;;5012731;28;20061;-34
2023/01/31 01:19:18;;;;;;;23.98;4.57;;;;;;;;;;5012621;28;20067;-34
2023/01/31 01:21:45;;;;;;;21.42;4.63;;;;;;;;;;5012653;28;20506;-34
2023/01/31 01:24:13;;;;;;;20.20;4.45;;;;;;;;;;5012764;28;20026;-34
2023/01/31 01:26:40;;;;;;;16.42;4.00;;;;;;;;;;5012554;28;20066;-35
2023/01/31 01:29:08;;;;;;;24.25;4.60;;;;;;;;;;5012553;28;20029;-35
2023/01/31 01:31:35;;;;;;;17.65;4.53;;;;;;;;;;4994877;28;20044;-35
2023/01/31 01:34:03;;;;;;;25.08;4.40;;;;;;;;;;5012586;28;20026;-34
2023/01/31 01:36:32;;;;;;;21.35;4.28;;;;;;;;;;5012596;28;20530;-34
2023/01/31 01:38:59;;;;;;;22.52;4.32;;;;;;;;;;5012560;28;20205;-34
2023/01/31 01:41:26;;;;;;;20.60;3.88;;;;;;;;;;5012319;28;20508;-34
2023/01/31 01:43:53;;;;;;;19.15;3.60;;;;;;;;;;5012806;28;20030;-34
2023/01/31 01:46:20;;;;;;;17.88;4.22;;;;;;;;;;5016257;28;20072;-35
2023/01/31 01:48:49;;;;;;;14.65;3.58;;;;;;;;;;5016189;28;20064;-35
2023/01/31 01:51:18;;;;;;;15.40;3.83;;;;;;;;;;5015735;28;20415;-34
2023/01/31 01:53:47;;;;;;;54.80;5.47;;;;;;;;;;5015348;28;20121;-34
2023/01/31 01:56:17;;;;;;;31.52;4.40;;;;;;;;;;5018637;28;20025;-34
2023/01/31 01:58:48;;;;;;;22.23;2.67;;;;;;;;;;5034431;28;20049;-34
2023/01/31 02:01:15;;;;;;;15.57;2.65;;;;;;;;;;5035200;28;20021;-34
2023/01/31 02:03:43;;;;;;;18.50;2.65;;;;;;;;;;5017305;28;20034;-34
2023/01/31 02:06:10;;;;;;;17.75;2.65;;;;;;;;;;5034930;28;20033;-34
2023/01/31 02:08:39;;;;;;;13.45;2.00;;;;;;;;;;5034152;28;20033;-34
2023/01/31 02:11:10;;;;;;;21.70;2.60;;;;;;;;;;5033720;28;20033;-34
2023/01/31 02:13:38;;;;;;;13.98;2.10;;;;;;;;;;5030655;28;20045;-34
2023/01/31 02:16:05;;;;;;;19.63;2.67;;;;;;;;;;5033108;28;20065;-35
2023/01/31 02:18:32;;;;;;;21.98;2.58;;;;;;;;;;5032753;28;20037;-36
2023/01/31 02:21:11;;;;;;;11.15;2.00;;;;;;;;;;5032225;28;20025;-34
2023/01/31 02:23:44;;;;;;;20.52;2.50;;;;;;;;;;5027872;28;20159;-34
2023/01/31 02:26:30;;;;;;;19.75;2.30;;;;;;;;;;5031994;28;20021;-34
2023/01/31 02:29:09;;;;;;;14.60;2.38;;;;;;;;;;5030549;28;20435;-34
2023/01/31 02:31:41;;;;;;;10.85;2.00;;;;;;;;;;5034031;28;20547;-34
2023/01/31 02:34:08;;;;;;;15.05;1.83;;;;;;;;;;5034241;28;20053;-34
2023/01/31 02:36:45;;;;;;;10.82;1.77;;;;;;;;;;5034253;28;20104;-34
2023/01/31 02:39:23;;;;;;;13.52;2.25;;;;;;;;;;5034440;28;20037;-34
2023/01/31 02:41:54;;;;;;;16.20;2.28;;;;;;;;;;5033985;28;20053;-34
2023/01/31 02:47:22;;;;;;;23.25;3.97;;;;;;;;;;5034486;28;20044;-34
2023/01/31 02:49:56;;;;;;;69.47;12.40;;;;;;;;;;5033978;28;20100;-34
2023/01/31 02:52:46;;;;;;;36.08;5.93;;;;;;;;;;5033984;28;20021;-34
2023/01/31 02:58:13;;;;;;;160.32;28.85;;;;;;;;;;5022287;28;20053;-37
2023/01/31 03:00:41;;;;;;;106.55;19.38;;;;;;;;;;5023090;28;20072;-34
2023/01/31 03:03:13;;;;;;;65.95;12.23;;;;;;;;;;5027967;28;20025;-34
2023/01/31 03:05:41;;;;;;;45.47;8.07;;;;;;;;;;5018091;28;20690;-34
2023/01/31 03:08:15;;;;;;;29.98;5.65;;;;;;;;;;5024407;28;20435;-34
2023/01/31 03:11:02;;;;;;;21.83;4.40;;;;;;;;;;5028793;28;20037;-34
2023/01/31 03:13:42;;;;;;;19.30;2.70;;;;;;;;;;5024161;28;20041;-34
2023/01/31 03:19:36;;;;;;;15.73;2.30;;;;;;;;;;5017678;28;20099;-34
2023/01/31 03:22:08;;;;;;;9.77;1.92;;;;;;;;;;5029329;28;20468;-34
2023/01/31 03:24:35;;;;;;;17.38;2.17;;;;;;;;;;5005168;28;20033;-34
2023/01/31 03:27:03;;;;;;;15.63;2.90;;;;;;;;;;4994616;28;20026;-35
2023/01/31 03:29:34;;;;;;;10.65;2.00;;;;;;;;;;5016755;28;20033;-34
2023/01/31 03:32:03;;;;;;;9.68;2.10;;;;;;;;;;5013892;28;20029;-34
2023/01/31 03:34:31;;;;;;;14.88;2.20;;;;;;;;;;5032767;28;20048;-34
2023/01/31 03:37:04;;;;;;;18.58;2.35;;;;;;;;;;5023895;28;20070;-35
2023/01/31 03:39:34;;;;;;;12.10;2.30;;;;;;;;;;5018933;28;20033;-34
2023/01/31 03:42:08;;;;;;;11.98;1.92;;;;;;;;;;5031810;28;20128;-34
2023/01/31 03:44:35;;;;;;;35.90;3.63;;;;;;;;;;5032442;28;20373;-34
2023/01/31 03:47:04;;;;;;;29.20;3.13;;;;;;;;;;5032562;28;20391;-34
2023/01/31 03:49:33;;;;;;;23.63;3.28;;;;;;;;;;5032057;28;20395;-34
2023/01/31 03:52:05;;;;;;;31.90;3.10;;;;;;;;;;5032752;28;20510;-34
2023/01/31 03:54:36;;;;;;;15.65;2.28;;;;;;;;;;5032698;28;20033;-34
2023/01/31 03:57:11;;;;;;;15.77;2.10;;;;;;;;;;5032732;28;20034;-34
2023/01/31 03:59:39;;;;;;;11.82;2.20;;;;;;;;;;5032651;28;20388;-34
2023/01/31 04:02:09;;;;;;;11.75;1.67;;;;;;;;;;5031014;28;20025;-35
2023/01/31 04:04:38;;;;;;;10.18;1.65;;;;;;;;;;5032059;28;20025;-34
2023/01/31 04:07:05;;;;;;;8.98;1.60;;;;;;;;;;5031158;28;20069;-35
2023/01/31 04:09:33;;;;;;;12.40;1.52;;;;;;;;;;5030879;28;20399;-34
2023/01/31 04:12:01;;;;;;;11.77;2.05;;;;;;;;;;5013080;28;20037;-34
2023/01/31 04:14:29;;;;;;;15.88;1.80;;;;;;;;;;5030989;28;20415;-34
2023/01/31 04:16:56;;;;;;;13.93;1.40;;;;;;;;;;5030885;28;20029;-34
2023/01/31 04:19:23;;;;;;;12.48;2.22;;;;;;;;;;5030727;28;20029;-34
2023/01/31 04:21:50;;;;;;;17.15;2.20;;;;;;;;;;5030183;28;20029;-34
2023/01/31 04:24:16;;;;;;;11.23;1.90;;;;;;;;;;5031627;28;20480;-34
2023/01/31 04:26:43;;;;;;;23.88;2.80;;;;;;;;;;5030805;28;20029;-36
2023/01/31 04:29:10;;;;;;;25.77;3.00;;;;;;;;;;5030326;28;20124;-34
2023/01/31 04:31:38;;;;;;;32.03;3.42;;;;;;;;;;5030522;28;20089;-34
2023/01/31 04:34:05;;;;;;;24.88;2.53;;;;;;;;;;5031632;28;20049;-34
2023/01/31 04:36:33;;;;;;;17.80;2.47;;;;;;;;;;5032029;28;20128;-34
2023/01/31 04:39:00;;;;;;;16.55;2.33;;;;;;;;;;5031906;28;20052;-34
2023/01/31 04:41:27;;;;;;;18.50;2.60;;;;;;;;;;5031954;28;20125;-34
2023/01/31 04:43:54;;;;;;;15.55;2.30;;;;;;;;;;5031934;28;20095;-34
2023/01/31 04:46:21;;;;;;;10.98;2.05;;;;;;;;;;5031933;28;20033;-34
2023/01/31 04:48:48;;;;;;;8.77;1.95;;;;;;;;;;5031942;28;20025;-34
2023/01/31 04:51:15;;;;;;;8.45;2.03;;;;;;;;;;5031834;28;20029;-34
2023/01/31 04:53:43;;;;;;;12.45;2.20;;;;;;;;;;5031949;28;20484;-34
2023/01/31 04:56:10;;;;;;;10.35;2.10;;;;;;;;;;5031849;28;20833;-34
2023/01/31 04:58:38;;;;;;;5.25;1.90;;;;;;;;;;5031720;28;20037;-34
2023/01/31 05:01:05;;;;;;;8.23;1.70;;;;;;;;;;5031646;28;20029;-34
2023/01/31 05:03:32;;;;;;;9.95;1.80;;;;;;;;;;5031934;28;20064;-34
2023/01/31 05:05:59;;;;;;;8.93;1.70;;;;;;;;;;5031898;28;20033;-34
2023/01/31 05:08:25;;;;;;;7.47;1.67;;;;;;;;;;5031844;28;20026;-34
2023/01/31 05:11:02;;;;;;;8.27;1.90;;;;;;;;;;5031557;28;20392;-34
2023/01/31 05:13:31;;;;;;;4.72;1.63;;;;;;;;;;5031692;28;20033;-34
2023/01/31 05:15:58;;;;;;;6.38;1.88;;;;;;;;;;5031654;28;20076;-34
2023/01/31 05:18:25;;;;;;;8.15;2.13;;;;;;;;;;5032944;28;20056;-34
2023/01/31 05:20:52;;;;;;;10.70;2.47;;;;;;;;;;5035662;28;20357;-34
2023/01/31 05:23:19;;;;;;;12.50;1.92;;;;;;;;;;5035576;28;20034;-34
2023/01/31 05:25:49;;;;;;;5.75;1.83;;;;;;;;;;5035591;28;20114;-34
2023/01/31 05:28:16;;;;;;;7.65;2.28;;;;;;;;;;5035453;28;20451;-34
2023/01/31 05:30:43;;;;;;;14.95;2.85;;;;;;;;;;5035350;28;20095;-34
2023/01/31 05:33:10;;;;;;;10.77;2.10;;;;;;;;;;5035411;28;20121;-34
2023/01/31 05:35:38;;;;;;;12.48;2.28;;;;;;;;;;5035417;28;20108;-34
2023/01/31 05:38:05;;;;;;;6.75;2.03;;;;;;;;;;5035342;28;20037;-34
2023/01/31 05:40:32;;;;;;;7.60;1.95;;;;;;;;;;5035310;28;20026;-34
2023/01/31 05:43:02;;;;;;;7.03;1.80;;;;;;;;;;5035215;28;20034;-34
2023/01/31 05:45:30;;;;;;;10.02;2.00;;;;;;;;;;5035325;28;20053;-34
2023/01/31 05:47:57;;;;;;;11.27;2.38;;;;;;;;;;5035149;28;20040;-34
2023/01/31 05:50:24;;;;;;;12.82;2.25;;;;;;;;;;5035128;28;20079;-34
2023/01/31 05:52:55;;;;;;;11.75;2.47;;;;;;;;;;5034996;28;20429;-34
2023/01/31 05:55:22;;;;;;;10.67;2.13;;;;;;;;;;5034408;28;20053;-34
2023/01/31 05:57:49;;;;;;;9.20;1.92;;;;;;;;;;5035100;28;20480;-34
2023/01/31 06:00:17;;;;;;;9.00;1.60;;;;;;;;;;5034883;28;20042;-34
2023/01/31 06:02:44;;;;;;;5.97;1.50;;;;;;;;;;5029247;28;20439;-34
2023/01/31 06:05:11;;;;;;;5.93;1.33;;;;;;;;;;5034704;28;20472;-34
2023/01/31 06:07:39;;;;;;;10.27;1.48;;;;;;;;;;5034799;28;20030;-34
2023/01/31 06:10:07;;;;;;;9.25;1.58;;;;;;;;;;5034751;28;20079;-34
2023/01/31 06:12:34;;;;;;;6.85;1.52;;;;;;;;;;5034690;28;20025;-34
2023/01/31 06:15:01;;;;;;;9.30;1.33;;;;;;;;;;5034738;28;20052;-35
2023/01/31 06:17:28;;;;;;;5.47;1.48;;;;;;;;;;5034731;28;20037;-35
2023/01/31 06:19:55;;;;;;;5.93;1.52;;;;;;;;;;5034578;28;20033;-34
2023/01/31 06:22:22;;;;;;;8.65;1.70;;;;;;;;;;5034325;28;20120;-34
2023/01/31 06:24:49;;;;;;;4.78;1.17;;;;;;;;;;5034487;28;20060;-34
2023/01/31 06:27:16;;;;;;;5.47;1.38;;;;;;;;;;5016694;28;20484;-34
2023/01/31 06:29:43;;;;;;;8.77;1.50;;;;;;;;;;5033677;28;20030;-34
2023/01/31 06:32:10;;;;;;;7.47;1.60;;;;;;;;;;5034445;28;20104;-34
2023/01/31 06:34:37;;;;;;;5.53;1.48;;;;;;;;;;5034398;28;20076;-34
2023/01/31 06:37:04;;;;;;;9.10;1.40;;;;;;;;;;5034290;28;20522;-34
2023/01/31 06:39:30;;;;;;;6.72;1.52;;;;;;;;;;5034381;28;20357;-34
2023/01/31 06:41:57;;;;;;;15.65;1.90;;;;;;;;;;5033979;28;20077;-34
2023/01/31 06:44:24;;;;;;;13.05;2.15;;;;;;;;;;5034276;28;20041;-34
2023/01/31 06:46:51;;;;;;;18.80;2.15;;;;;;;;;;5034141;28;20426;-34
2023/01/31 06:49:18;;;;;;;12.45;1.95;;;;;;;;;;5034014;28;20021;-34
2023/01/31 06:51:45;;;;;;;10.65;1.83;;;;;;;;;;5034092;28;20036;-34
2023/01/31 06:54:12;;;;;;;10.32;1.67;;;;;;;;;;5034024;28;20076;-34
2023/01/31 06:56:39;;;;;;;7.82;2.00;;;;;;;;;;5033957;28;20029;-34
2023/01/31 06:59:06;;;;;;;6.25;1.48;;;;;;;;;;5033923;28;20507;-34
2023/01/31 07:01:33;;;;;;;7.85;1.60;;;;;;;;;;5016057;28;20496;-34
2023/01/31 07:04:00;;;;;;;10.75;1.65;;;;;;;;;;5033771;28;20026;-34
2023/01/31 07:06:27;;;;;;;9.30;1.85;;;;;;;;;;5033712;28;20470;-34
2023/01/31 07:08:54;;;;;;;6.35;1.45;;;;;;;;;;5033676;28;20029;-34
2023/01/31 07:11:21;;;;;;;8.10;1.10;;;;;;;;;;5033690;28;20029;-34
2023/01/31 07:13:49;;;;;;;11.27;1.65;;;;;;;;;;5033493;28;20040;-34
2023/01/31 07:16:17;;;;;;;5.43;1.30;;;;;;;;;;5033459;28;20483;-34
2023/01/31 07:18:44;;;;;;;5.28;1.55;;;;;;;;;;5033459;28;20453;-34
2023/01/31 07:21:11;;;;;;;7.78;1.65;;;;;;;;;;5033455;28;20037;-35
2023/01/31 07:23:38;;;;;;;7.28;1.83;;;;;;;;;;5033460;28;20029;-34
2023/01/31 07:26:05;;;;;;;7.57;1.45;;;;;;;;;;5033385;28;20059;-34
2023/01/31 07:28:32;;;;;;;14.93;2.13;;;;;;;;;;5033214;28;20021;-34
2023/01/31 07:31:06;;;;;;;8.32;1.88;;;;;;;;;;5033260;28;20049;-34
2023/01/31 07:33:33;;;;;;;11.18;1.95;;;;;;;;;;5033197;28;20132;-34
2023/01/31 07:36:04;;;;;;;4.22;1.60;;;;;;;;;;5033242;28;20075;-34
2023/01/31 07:38:32;;;;;;;7.45;1.50;;;;;;;;;;5033092;28;20104;-34
2023/01/31 07:41:03;;;;;;;10.32;1.77;;;;;;;;;;5032674;28;20033;-34
2023/01/31 07:43:30;;;;;;;11.77;1.70;;;;;;;;;;5046178;28;20442;-34
2023/01/31 07:45:57;;;;;;;4.90;1.20;;;;;;;;;;5034861;28;20052;-34
2023/01/31 07:48:24;;;;;;;7.60;1.40;;;;;;;;;;5052922;28;20055;-34
2023/01/31 07:50:52;;;;;;;5.25;1.38;;;;;;;;;;5052786;28;20039;-34
2023/01/31 07:53:19;;;;;;;7.30;1.80;;;;;;;;;;5052734;28;20056;-34
2023/01/31 07:55:46;;;;;;;10.30;1.90;;;;;;;;;;5052804;28;20025;-34
2023/01/31 07:58:14;;;;;;;8.45;1.80;;;;;;;;;;5052739;28;20017;-34
2023/01/31 08:03:35;;;;;;;7.53;1.42;;;;;;;;;;5052896;28;20051;-34
2023/01/31 08:06:03;;;;;;;10.50;1.67;;;;;;;;;;5052623;28;20033;-34
2023/01/31 08:08:30;;;;;;;9.23;2.03;;;;;;;;;;5052505;28;20032;-34
2023/01/31 08:10:57;;;;;;;14.85;1.90;;;;;;;;;;5052551;28;20495;-34
2023/01/31 08:13:25;;;;;;;11.57;1.92;;;;;;;;;;5052275;28;20118;-34
2023/01/31 08:15:53;;;;;;;13.32;2.80;;;;;;;;;;5052307;28;20107;-34
2023/01/31 08:18:20;;;;;;;17.73;2.20;;;;;;;;;;5052373;28;20025;-34
2023/01/31 08:20:47;;;;;;;13.10;2.05;;;;;;;;;;5052220;28;20048;-34
2023/01/31 08:23:14;;;;;;;9.93;2.10;;;;;;;;;;5052322;28;20032;-34
2023/01/31 08:25:41;;;;;;;8.50;1.58;;;;;;;;;;5052142;28;20025;-34
2023/01/31 08:28:08;;;;;;;11.02;2.17;;;;;;;;;;5052229;28;20024;-34
2023/01/31 08:30:39;;;;;;;7.03;2.10;;;;;;;;;;5052134;28;20029;-34
2023/01/31 08:33:06;;;;;;;13.88;2.13;;;;;;;;;;5034055;28;20386;-34
2023/01/31 08:35:32;;;;;;;11.70;2.25;;;;;;;;;;5052161;28;20060;-34
2023/01/31 08:37:59;;;;;;;27.45;2.97;;;;;;;;;;5051969;28;20044;-34
2023/01/31 08:40:26;;;;;;;10.45;2.00;;;;;;;;;;5052036;28;20053;-34
2023/01/31 08:42:57;;;;;;;9.57;1.95;;;;;;;;;;5051640;28;20080;-34
2023/01/31 08:45:24;;;;;;;10.68;2.20;;;;;;;;;;5052007;28;20471;-34
2023/01/31 08:47:58;;;;;;;7.38;2.00;;;;;;;;;;5051920;28;20041;-34
2023/01/31 08:50:26;;;;;;;8.48;2.00;;;;;;;;;;5051794;28;20018;-34
2023/01/31 08:52:57;;;;;;;9.45;2.00;;;;;;;;;;5051510;28;20025;-34
2023/01/31 08:55:24;;;;;;;7.60;1.73;;;;;;;;;;5051865;28;20025;-34
2023/01/31 08:57:52;;;;;;;12.80;2.08;;;;;;;;;;5051847;28;20025;-34
2023/01/31 09:00:19;;;;;;;14.55;2.25;;;;;;;;;;5051714;28;20118;-34
2023/01/31 09:02:56;;;;;;;10.50;1.60;;;;;;;;;;5051714;28;20035;-34
2023/01/31 09:05:23;;;;;;;9.57;2.08;;;;;;;;;;5051746;28;20363;-34
2023/01/31 09:07:50;;;;;;;12.60;2.55;;;;;;;;;;5051660;28;20405;-34
2023/01/31 09:10:18;;;;;;;12.95;2.42;;;;;;;;;;5051575;28;20048;-34
2023/01/31 09:12:45;;;;;;;13.63;2.40;;;;;;;;;;5051505;28;20116;-34
2023/01/31 09:15:12;;;;;;;15.27;2.70;;;;;;;;;;5051715;28;20064;-34
2023/01/31 09:17:39;;;;;;;17.35;2.90;;;;;;;;;;5033706;28;20414;-34
2023/01/31 09:20:08;;;;;;;21.95;2.25;;;;;;;;;;5051598;28;20032;-34
2023/01/31 09:22:36;;;;;;;17.00;2.40;;;;;;;;;;5051463;28;20025;-34
2023/01/31 09:25:03;;;;;;;14.75;2.58;;;;;;;;;;5051618;28;20044;-34
2023/01/31 09:27:30;;;;;;;16.73;2.67;;;;;;;;;;5051365;28;20045;-34
2023/01/31 09:29:57;;;;;;;20.35;2.88;;;;;;;;;;5051449;28;20031;-34
2023/01/31 09:32:24;;;;;;;16.92;2.17;;;;;;;;;;5051521;28;20082;-34
2023/01/31 09:34:51;;;;;;;18.65;3.00;;;;;;;;;;5051443;28;20757;-34
2023/01/31 09:37:18;;;;;;;16.58;2.83;;;;;;;;;;5033451;28;20029;-34
2023/01/31 09:39:45;;;;;;;16.98;2.90;;;;;;;;;;5051348;28;20033;-34
2023/01/31 09:42:50;;;;;;;19.90;3.00;;;;;;;;;;5051285;28;20057;-34
2023/01/31 09:45:37;;;;;;;32.00;3.33;;;;;;;;;;4951322;29;20139;-34
2023/01/31 09:48:05;;;;;;;30.85;3.28;;;;;;;;;;4951028;29;20118;-34
2023/01/31 09:50:47;;;;;;;20.58;2.88;;;;;;;;;;5014217;28;20415;-34
2023/01/31 09:53:20;;;;;;;24.05;3.63;;;;;;;;;;5051283;28;20043;-34
2023/01/31 09:55:51;;;;;;;25.73;3.88;;;;;;;;;;5051181;28;20041;-34
2023/01/31 09:58:33;;;;;;;43.17;4.65;;;;;;;;;;5051148;28;20029;-34
2023/01/31 10:01:17;;;;;;;31.02;4.20;;;;;;;;;;5051284;28;20029;-34
2023/01/31 10:03:44;;;;;;;31.88;3.95;;;;;;;;;;5051276;28;20063;-34
2023/01/31 10:06:14;;;;;;;34.28;4.22;;;;;;;;;;5053286;28;20079;-34
2023/01/31 10:08:51;;;;;;;44.50;4.50;;;;;;;;;;5054688;28;20387;-34
2023/01/31 10:11:26;;;;;;;41.83;4.35;;;;;;;;;;5054802;28;20036;-34
2023/01/31 10:13:56;;;;;;;28.42;4.07;;;;;;;;;;5054638;28;20108;-34
2023/01/31 10:16:23;;;;;;;58.50;5.93;;;;;;;;;;5054461;28;20037;-34
2023/01/31 10:18:52;;;;;;;38.05;4.53;;;;;;;;;;5054550;28;20574;-34
2023/01/31 10:21:23;;;;;;;34.42;4.03;;;;;;;;;;5054458;28;20067;-34
2023/01/31 10:23:55;;;;;;;49.85;5.20;;;;;;;;;;5054314;28;20029;-34
2023/01/31 10:26:21;;;;;;;;;;;;;;;;;;5054899;28;20383;-34
2023/01/31 10:28:51;;;;;;;43.50;4.82;;;;;;;;;;5054286;28;20294;-34
2023/01/31 10:31:17;;;;;;;42.28;4.70;;;;;;;;;;5054329;28;20032;-34
2023/01/31 10:33:44;;;;;;;47.97;4.88;;;;;;;;;;5054268;28;20041;-34
2023/01/31 10:36:15;;;;;;;41.75;5.15;;;;;;;;;;5054156;28;20062;-34
2023/01/31 10:38:50;;;;;;;46.63;5.70;;;;;;;;;;5054119;28;20100;-34
2023/01/31 10:41:22;;;;;;;58.42;5.63;;;;;;;;;;5054078;28;20021;-34
2023/01/31 10:43:49;;;;;;;;;;;;;;;;;;5054609;28;20029;-34
2023/01/31 10:46:16;;;;;;;70.07;9.10;;;;;;;;;;5054160;28;19965;-34
2023/01/31 10:48:44;;;;;;;61.90;6.40;;;;;;;;;;5054003;28;20021;-34
2023/01/31 10:51:32;;;;;;;61.85;6.28;;;;;;;;;;5053964;28;20499;-34
2023/01/31 10:54:19;;;;;;;55.08;6.05;;;;;;;;;;5053902;28;20033;-34
2023/01/31 10:56:47;;;;;;;48.30;5.97;;;;;;;;;;5004119;28;20052;-34
2023/01/31 10:59:20;;;;;;;59.13;6.72;;;;;;;;;;5053732;28;20029;-34
2023/01/31 11:01:47;;;;;;;51.00;6.40;;;;;;;;;;5053746;28;20029;-34
2023/01/31 11:04:46;;;;;;;58.22;6.80;;;;;;;;;;5053754;28;20029;-34
2023/01/31 11:07:13;;;;;;;59.95;6.28;;;;;;;;;;4999518;28;20095;-34
2023/01/31 11:09:42;;;;;;;44.95;5.90;;;;;;;;;;5053490;28;20029;-34
2023/01/31 11:12:09;;;;;;;55.33;5.90;;;;;;;;;;5053623;28;20789;-34
2023/01/31 11:14:36;;;;;;;37.80;4.60;;;;;;;;;;5053466;28;20036;-34
2023/01/31 11:17:06;;;;;;;39.30;4.75;;;;;;;;;;5053317;28;20031;-34
2023/01/31 11:19:41;;;;;;;30.90;4.22;;;;;;;;;;5053429;28;20102;-34
2023/01/31 11:22:08;;;;;;;26.02;4.55;;;;;;;;;;5053401;28;20037;-34
2023/01/31 11:24:37;;;;;;;26.35;3.90;;;;;;;;;;5053261;28;20098;-34
2023/01/31 11:27:06;;;;;;;29.20;4.07;;;;;;;;;;5053302;28;20103;-34
2023/01/31 11:29:36;;;;;;;27.15;3.65;;;;;;;;;;5052944;28;20017;-34
2023/01/31 11:32:05;;;;;;;34.47;4.03;;;;;;;;;;5053144;28;20087;-34
2023/01/31 11:34:32;;;;;;;27.67;3.50;;;;;;;;;;5053147;28;20116;-34
2023/01/31 11:37:13;;;;;;;27.30;3.80;;;;;;;;;;5053033;28;20048;-34
2023/01/31 11:39:40;;;;;;;33.75;3.75;;;;;;;;;;5052869;28;20048;-34
2023/01/31 11:42:07;;;;;;;25.67;3.72;;;;;;;;;;5052929;28;20132;-34
2023/01/31 11:44:34;;;;;;;24.30;4.00;;;;;;;;;;5052972;28;20475;-34
2023/01/31 11:47:11;;;;;;;17.35;3.30;;;;;;;;;;5052908;28;20028;-34
2023/01/31 11:49:42;;;;;;;38.35;3.78;;;;;;;;;;5034839;28;20543;-34
2023/01/31 11:52:22;;;;;;;20.55;3.60;;;;;;;;;;5052876;28;20119;-34
2023/01/31 11:54:51;;;;;;;25.20;3.40;;;;;;;;;;5052679;28;20116;-34
2023/01/31 11:57:26;;;;;;;29.83;2.92;;;;;;;;;;5052750;28;20128;-34
2023/01/31 11:59:54;;;;;;;28.55;3.65;;;;;;;;;;5052608;28;20033;-34
2023/01/31 12:02:26;;;;;;;24.85;4.40;;;;;;;;;;5052636;28;20029;-35
2023/01/31 12:04:53;;;;;;;40.72;4.65;;;;;;;;;;5052554;28;20036;-34
2023/01/31 12:07:24;;;;;;;35.60;3.80;;;;;;;;;;5052459;28;20025;-34
2023/01/31 12:09:51;;;;;;;36.38;4.50;;;;;;;;;;5052393;28;20049;-35
2023/01/31 12:12:28;;;;;;;33.25;4.38;;;;;;;;;;5052401;28;20040;-35
2023/01/31 12:14:59;;;;;;;23.30;3.45;;;;;;;;;;5043478;28;20043;-39
2023/01/31 12:17:28;;;;;;;30.00;3.78;;;;;;;;;;5031904;28;20072;-34
2023/01/31 12:20:13;;;;;;;27.45;3.47;;;;;;;;;;5032132;28;20388;-34
2023/01/31 12:22:44;;;;;;;36.03;3.90;;;;;;;;;;5021438;28;20065;-34
2023/01/31 12:25:11;;;;;;;39.58;4.32;;;;;;;;;;5032084;28;20025;-34
2023/01/31 12:27:44;;;;;;;37.08;4.15;;;;;;;;;;5031565;28;20033;-34
2023/01/31 12:30:11;;;;;;;38.53;4.25;;;;;;;;;;5031804;28;20025;-34
2023/01/31 12:32:55;;;;;;;26.30;3.55;;;;;;;;;;5031897;28;20025;-35
2023/01/31 12:35:25;;;;;;;29.60;3.47;;;;;;;;;;5031775;28;20417;-35
2023/01/31 12:37:59;;;;;;;44.20;4.72;;;;;;;;;;5019308;28;20037;-34
2023/01/31 12:40:37;;;;;;;35.90;4.45;;;;;;;;;;5031709;28;20070;-34
2023/01/31 12:43:25;;;;;;;31.40;4.13;;;;;;;;;;5031587;28;20057;-34
2023/01/31 12:46:10;;;;;;;33.58;4.68;;;;;;;;;;4965510;28;20052;-34
2023/01/31 12:48:55;;;;;;;40.63;4.95;;;;;;;;;;5031531;28;20059;-34
2023/01/31 12:51:42;;;;;;;28.45;4.03;;;;;;;;;;5031748;28;20037;-35
2023/01/31 12:54:18;;;;;;;50.45;5.40;;;;;;;;;;5019533;28;20500;-34
2023/01/31 12:57:07;;;;;;;44.05;4.40;;;;;;;;;;5031571;28;20480;-34
2023/01/31 12:59:48;;;;;;;46.53;5.25;;;;;;;;;;5031694;28;20045;-34
2023/01/31 13:02:34;;;;;;;45.83;5.07;;;;;;;;;;5039333;28;20040;-34
2023/01/31 13:05:08;;;;;;;48.80;4.88;;;;;;;;;;5034282;28;20036;-34
2023/01/31 13:07:38;;;;;;;55.20;5.30;;;;;;;;;;5031541;28;20033;-34
2023/01/31 13:10:07;;;;;;;30.90;4.90;;;;;;;;;;5031054;28;20026;-38
2023/01/31 13:12:36;;;;;;;45.75;5.68;;;;;;;;;;5019139;28;20060;-34
2023/01/31 13:15:03;;;;;;;39.97;4.65;;;;;;;;;;5030940;28;20853;-35
2023/01/31 13:17:31;;;;;;;39.15;4.75;;;;;;;;;;5031527;28;20045;-34
2023/01/31 13:20:22;;;;;;;33.00;4.72;;;;;;;;;;5012659;28;20124;-34
2023/01/31 13:22:55;;;;;;;35.33;4.07;;;;;;;;;;5011991;28;20017;-34
2023/01/31 13:25:24;;;;;;;35.38;4.13;;;;;;;;;;5011800;28;20037;-34
2023/01/31 13:28:02;;;;;;;41.17;4.90;;;;;;;;;;5011741;28;20147;-35
2023/01/31 13:30:35;;;;;;;38.88;4.43;;;;;;;;;;5011117;28;20036;-35
2023/01/31 13:33:08;;;;;;;22.08;2.85;;;;;;;;;;5011571;28;20030;-35
2023/01/31 13:35:38;;;;;;;20.98;3.28;;;;;;;;;;5011713;28;20046;-35
2023/01/31 13:38:08;;;;;;;31.85;4.22;;;;;;;;;;5011696;28;20496;-35
2023/01/31 13:40:38;;;;;;;35.03;3.97;;;;;;;;;;4997028;28;20453;-34
2023/01/31 13:43:15;;;;;;;38.08;5.03;;;;;;;;;;5015335;28;20061;-34
2023/01/31 13:45:47;;;;;;;29.55;3.72;;;;;;;;;;5015422;28;20060;-35
2023/01/31 13:48:16;;;;;;;29.17;4.07;;;;;;;;;;5015461;28;20041;-35
2023/01/31 13:50:50;;;;;;;25.75;3.78;;;;;;;;;;5015262;28;20041;-35
2023/01/31 13:53:21;;;;;;;55.25;4.90;;;;;;;;;;5015321;28;20104;-36
2023/01/31 13:55:49;;;;;;;50.33;4.40;;;;;;;;;;5015238;28;20562;-35
2023/01/31 13:58:22;;;;;;;33.10;4.63;;;;;;;;;;4996537;28;20488;-35
2023/01/31 14:00:50;;;;;;;30.10;4.10;;;;;;;;;;5014657;28;20453;-35
2023/01/31 14:03:19;;;;;;;38.17;4.40;;;;;;;;;;5015144;28;20054;-35
2023/01/31 14:05:54;;;;;;;24.90;3.53;;;;;;;;;;5015114;28;20025;-35
2023/01/31 14:08:28;;;;;;;36.40;5.43;;;;;;;;;;5020443;28;20091;-35
2023/01/31 14:10:56;;;;;;;30.02;3.70;;;;;;;;;;5031497;28;20045;-35
2023/01/31 14:13:26;;;;;;;32.58;4.60;;;;;;;;;;5034606;28;20391;-35
2023/01/31 14:15:54;;;;;;;35.53;3.72;;;;;;;;;;5022354;28;20033;-35
2023/01/31 14:18:40;;;;;;;29.08;3.95;;;;;;;;;;5023120;28;20068;-35
2023/01/31 14:21:25;;;;;;;35.22;5.07;;;;;;;;;;5024069;28;20041;-35
2023/01/31 14:23:52;;;;;;;44.35;4.47;;;;;;;;;;5017377;28;20527;-35
2023/01/31 14:26:38;;;;;;;35.55;4.93;;;;;;;;;;5022523;28;20053;-35
2023/01/31 14:29:15;;;;;;;52.15;6.30;;;;;;;;;;5014430;28;20030;-35
2023/01/31 14:31:45;;;;;;;35.78;5.50;;;;;;;;;;5014448;28;20095;-35
2023/01/31 14:34:17;;;;;;;48.97;5.75;;;;;;;;;;5031449;28;20040;-35
2023/01/31 14:37:02;;;;;;;35.67;5.38;;;;;;;;;;5054329;28;20025;-35
2023/01/31 14:39:48;;;;;;;38.65;5.90;;;;;;;;;;5054195;28;20025;-35
2023/01/31 14:42:15;;;;;;;41.22;6.13;;;;;;;;;;5054113;28;20463;-36
2023/01/31 14:44:49;;;;;;;50.42;6.22;;;;;;;;;;5054194;28;20032;-35
2023/01/31 14:47:23;;;;;;;51.08;6.53;;;;;;;;;;5041449;28;20041;-32
2023/01/31 14:49:52;;;;;;;35.80;6.38;;;;;;;;;;5053761;28;20484;-32
2023/01/31 14:52:27;;;;;;;40.78;6.13;;;;;;;;;;5053309;28;20503;-32
2023/01/31 14:54:56;;;;;;;38.17;6.22;;;;;;;;;;5042129;28;20052;-33
2023/01/31 14:57:28;;;;;;;38.33;6.57;;;;;;;;;;5031978;28;20553;-32
2023/01/31 14:59:57;;;;;;;41.20;6.55;;;;;;;;;;5033793;28;20076;-33
2023/01/31 15:02:33;;;;;;;36.97;6.95;;;;;;;;;;5034217;28;20503;-33